DAL1312 KMCO-KRDU
Flight info
| Callsign | DAL1312 |
|---|---|
| Flight time | 1h 17m |
| Altitude | 35000 |
| Route | FATHE4 VIYAP Q69 GURGE PETTO DMSTR2 |
| Aircraft | A320/M-SDE3FGHIRWY/LB1 |
Departure
| Time | 2026-05-07 20:29 |
|---|---|
| Airport | Orlando International Airport (KMCO) |
Arrival
| Time | 2026-05-07 21:47 |
|---|---|
| Airport | Raleigh-Durham International Airport (KRDU) |
| Time | Latitude | Longitude | Altitude | Speed | Heading |
|---|---|---|---|---|---|
| 2026-05-07 20:05 | 28.42903 | -81.30057 | 113 ft | 0 kts | 182° |
| 2026-05-07 20:20 | 28.42916 | -81.30056 | 94 ft | 3 kts | 185° |
| 2026-05-07 20:21 | 28.42936 | -81.30053 | 94 ft | 3 kts | 189° |
| 2026-05-07 20:21 | 28.42956 | -81.30050 | 93 ft | 3 kts | 185° |
| 2026-05-07 20:21 | 28.42974 | -81.30050 | 95 ft | 3 kts | 140° |
| 2026-05-07 20:21 | 28.42979 | -81.30055 | 94 ft | 1 kts | 89° |
| 2026-05-07 20:22 | 28.42979 | -81.30059 | 94 ft | 0 kts | 89° |
| 2026-05-07 20:25 | 28.42979 | -81.30041 | 95 ft | 7 kts | 89° |
| 2026-05-07 20:25 | 28.42960 | -81.29969 | 96 ft | 10 kts | 118° |
| 2026-05-07 20:25 | 28.42929 | -81.29908 | 95 ft | 8 kts | 120° |
| 2026-05-07 20:26 | 28.42911 | -81.29841 | 95 ft | 13 kts | 96° |
| 2026-05-07 20:26 | 28.42932 | -81.29725 | 95 ft | 16 kts | 41° |
| 2026-05-07 20:26 | 28.43031 | -81.29708 | 95 ft | 14 kts | 359° |
| 2026-05-07 20:26 | 28.43124 | -81.29708 | 96 ft | 13 kts | 0° |
| 2026-05-07 20:27 | 28.43181 | -81.29708 | 95 ft | 12 kts | 358° |
| 2026-05-07 20:27 | 28.43256 | -81.29711 | 97 ft | 10 kts | 358° |
| 2026-05-07 20:27 | 28.43322 | -81.29711 | 98 ft | 10 kts | 0° |
| 2026-05-07 20:27 | 28.43428 | -81.29712 | 95 ft | 20 kts | 0° |
| 2026-05-07 20:28 | 28.43548 | -81.29647 | 96 ft | 13 kts | 85° |
| 2026-05-07 20:28 | 28.43527 | -81.29593 | 100 ft | 10 kts | 152° |
| 2026-05-07 20:28 | 28.43442 | -81.29586 | 98 ft | 22 kts | 182° |
| 2026-05-07 20:28 | 28.43013 | -81.29583 | 99 ft | 98 kts | 180° |
| 2026-05-07 20:29 | 28.42126 | -81.29578 | 99 ft | 154 kts | 181° |
| 2026-05-07 20:29 | 28.40964 | -81.29555 | 390 ft | 179 kts | 180° |
| 2026-05-07 20:29 | 28.39625 | -81.29500 | 804 ft | 202 kts | 175° |
| 2026-05-07 20:29 | 28.38209 | -81.29197 | 1532 ft | 213 kts | 166° |
| 2026-05-07 20:30 | 28.36862 | -81.28468 | 2354 ft | 219 kts | 150° |
| 2026-05-07 20:30 | 28.35677 | -81.27339 | 3151 ft | 227 kts | 136° |
| 2026-05-07 20:30 | 28.34588 | -81.25997 | 3908 ft | 235 kts | 134° |
| 2026-05-07 20:30 | 28.33587 | -81.24442 | 4447 ft | 259 kts | 114° |
| 2026-05-07 20:31 | 28.33388 | -81.22340 | 4900 ft | 282 kts | 77° |
| 2026-05-07 20:31 | 28.34300 | -81.20368 | 5627 ft | 287 kts | 43° |
| 2026-05-07 20:31 | 28.36004 | -81.19246 | 6430 ft | 285 kts | 9° |
| 2026-05-07 20:31 | 28.37958 | -81.19257 | 7209 ft | 283 kts | 348° |
| 2026-05-07 20:32 | 28.39906 | -81.19631 | 8030 ft | 286 kts | 346° |
| 2026-05-07 20:32 | 28.41852 | -81.20049 | 8812 ft | 290 kts | 345° |
| 2026-05-07 20:32 | 28.43850 | -81.20488 | 9616 ft | 295 kts | 345° |
| 2026-05-07 20:32 | 28.45891 | -81.20934 | 10252 ft | 305 kts | 345° |
| 2026-05-07 20:33 | 28.48054 | -81.21404 | 10480 ft | 328 kts | 345° |
| 2026-05-07 20:33 | 28.50332 | -81.21886 | 10996 ft | 337 kts | 346° |
| 2026-05-07 20:33 | 28.52657 | -81.22365 | 11692 ft | 341 kts | 346° |
| 2026-05-07 20:33 | 28.55005 | -81.22842 | 12393 ft | 345 kts | 346° |
| 2026-05-07 20:34 | 28.57374 | -81.23322 | 13114 ft | 348 kts | 345° |
| 2026-05-07 20:34 | 28.59772 | -81.23810 | 13809 ft | 351 kts | 345° |
| 2026-05-07 20:34 | 28.62184 | -81.24306 | 14440 ft | 354 kts | 345° |
| 2026-05-07 20:34 | 28.64616 | -81.24807 | 15110 ft | 355 kts | 345° |
| 2026-05-07 20:35 | 28.67050 | -81.25311 | 15766 ft | 357 kts | 345° |
| 2026-05-07 20:35 | 28.69495 | -81.25818 | 16426 ft | 359 kts | 345° |
| 2026-05-07 20:35 | 28.71958 | -81.26329 | 17090 ft | 361 kts | 345° |
| 2026-05-07 20:35 | 28.74440 | -81.26843 | 17751 ft | 363 kts | 344° |
| 2026-05-07 20:36 | 28.76928 | -81.27359 | 18391 ft | 365 kts | 344° |
| 2026-05-07 20:36 | 28.79434 | -81.27879 | 18947 ft | 367 kts | 344° |
| 2026-05-07 20:36 | 28.81957 | -81.28402 | 19487 ft | 370 kts | 344° |
| 2026-05-07 20:36 | 28.84517 | -81.28876 | 19997 ft | 377 kts | 348° |
| 2026-05-07 20:37 | 28.87147 | -81.29107 | 20526 ft | 381 kts | 349° |
| 2026-05-07 20:37 | 28.89804 | -81.29332 | 21037 ft | 385 kts | 349° |
| 2026-05-07 20:37 | 28.92494 | -81.29560 | 21550 ft | 388 kts | 349° |
| 2026-05-07 20:37 | 28.95194 | -81.29791 | 22061 ft | 391 kts | 349° |
| 2026-05-07 20:38 | 28.97923 | -81.30026 | 22578 ft | 395 kts | 349° |
| 2026-05-07 20:38 | 29.00675 | -81.30269 | 23091 ft | 398 kts | 348° |
| 2026-05-07 20:38 | 29.03439 | -81.30551 | 23586 ft | 401 kts | 347° |
| 2026-05-07 20:38 | 29.06226 | -81.30865 | 23996 ft | 404 kts | 347° |
| 2026-05-07 20:39 | 29.09033 | -81.31192 | 24411 ft | 406 kts | 347° |
| 2026-05-07 20:39 | 29.11847 | -81.31510 | 24820 ft | 409 kts | 348° |
| 2026-05-07 20:39 | 29.14703 | -81.31752 | 25224 ft | 413 kts | 349° |
| 2026-05-07 20:39 | 29.17578 | -81.31930 | 25626 ft | 416 kts | 350° |
| 2026-05-07 20:40 | 29.20477 | -81.32074 | 26015 ft | 418 kts | 350° |
| 2026-05-07 20:40 | 29.23393 | -81.32213 | 26400 ft | 421 kts | 350° |
| 2026-05-07 20:40 | 29.26330 | -81.32359 | 26771 ft | 423 kts | 350° |
| 2026-05-07 20:40 | 29.29275 | -81.32519 | 27138 ft | 425 kts | 349° |
| 2026-05-07 20:41 | 29.32231 | -81.32690 | 27494 ft | 427 kts | 349° |
| 2026-05-07 20:41 | 29.35216 | -81.32869 | 27858 ft | 430 kts | 349° |
| 2026-05-07 20:41 | 29.38208 | -81.33055 | 28195 ft | 432 kts | 349° |
| 2026-05-07 20:41 | 29.41218 | -81.33243 | 28536 ft | 434 kts | 349° |
| 2026-05-07 20:42 | 29.44249 | -81.33430 | 28871 ft | 437 kts | 349° |
| 2026-05-07 20:42 | 29.47286 | -81.33617 | 29209 ft | 439 kts | 348° |
| 2026-05-07 20:42 | 29.50351 | -81.33805 | 29537 ft | 441 kts | 348° |
| 2026-05-07 20:42 | 29.53382 | -81.33990 | 29854 ft | 443 kts | 348° |
| 2026-05-07 20:43 | 29.56470 | -81.34175 | 30143 ft | 446 kts | 348° |
| 2026-05-07 20:43 | 29.59572 | -81.34359 | 30418 ft | 447 kts | 348° |
| 2026-05-07 20:43 | 29.62696 | -81.34542 | 30685 ft | 449 kts | 348° |
| 2026-05-07 20:43 | 29.65817 | -81.34724 | 30952 ft | 451 kts | 348° |
| 2026-05-07 20:44 | 29.68954 | -81.34906 | 31211 ft | 452 kts | 348° |
| 2026-05-07 20:44 | 29.72106 | -81.35087 | 31476 ft | 453 kts | 348° |
| 2026-05-07 20:44 | 29.75258 | -81.35265 | 31816 ft | 452 kts | 348° |
| 2026-05-07 20:44 | 29.78400 | -81.35441 | 32193 ft | 451 kts | 348° |
| 2026-05-07 20:45 | 29.81524 | -81.35616 | 32570 ft | 449 kts | 348° |
| 2026-05-07 20:45 | 29.84645 | -81.35792 | 32944 ft | 447 kts | 348° |
| 2026-05-07 20:45 | 29.87749 | -81.35971 | 33318 ft | 446 kts | 348° |
| 2026-05-07 20:45 | 29.90802 | -81.36151 | 33693 ft | 445 kts | 348° |
| 2026-05-07 20:46 | 29.93925 | -81.36334 | 34065 ft | 443 kts | 348° |
| 2026-05-07 20:46 | 29.96998 | -81.36514 | 34387 ft | 442 kts | 348° |
| 2026-05-07 20:46 | 30.00065 | -81.36693 | 34698 ft | 440 kts | 348° |
| 2026-05-07 20:46 | 30.03122 | -81.36868 | 34951 ft | 440 kts | 348° |
| 2026-05-07 20:47 | 30.06164 | -81.37040 | 35012 ft | 434 kts | 348° |
| 2026-05-07 20:47 | 30.12127 | -81.37368 | 35019 ft | 426 kts | 348° |
| 2026-05-07 20:48 | 30.18002 | -81.37707 | 35006 ft | 425 kts | 348° |
| 2026-05-07 20:48 | 30.23905 | -81.38062 | 34996 ft | 424 kts | 348° |
| 2026-05-07 20:49 | 30.29803 | -81.38410 | 34989 ft | 424 kts | 348° |
| 2026-05-07 20:49 | 30.35691 | -81.38755 | 34997 ft | 423 kts | 348° |
| 2026-05-07 20:50 | 30.41575 | -81.39096 | 34996 ft | 423 kts | 348° |
| 2026-05-07 20:50 | 30.47460 | -81.39434 | 34989 ft | 424 kts | 348° |
| 2026-05-07 20:51 | 30.53360 | -81.39746 | 34958 ft | 424 kts | 348° |
| 2026-05-07 20:51 | 30.59263 | -81.40053 | 34950 ft | 425 kts | 348° |
| 2026-05-07 20:52 | 30.65142 | -81.40366 | 34951 ft | 426 kts | 348° |
| 2026-05-07 20:52 | 30.71066 | -81.40677 | 34948 ft | 426 kts | 349° |
| 2026-05-07 20:53 | 30.76997 | -81.40989 | 34950 ft | 427 kts | 349° |
| 2026-05-07 20:53 | 30.82942 | -81.41301 | 34956 ft | 428 kts | 349° |
| 2026-05-07 20:54 | 30.88895 | -81.41617 | 34940 ft | 428 kts | 349° |
| 2026-05-07 20:54 | 30.94856 | -81.41938 | 34931 ft | 429 kts | 349° |
| 2026-05-07 20:55 | 31.00827 | -81.42256 | 34924 ft | 430 kts | 349° |
| 2026-05-07 20:55 | 31.06803 | -81.42572 | 34922 ft | 430 kts | 349° |
| 2026-05-07 20:56 | 31.12787 | -81.42885 | 34923 ft | 430 kts | 349° |
| 2026-05-07 20:56 | 31.18762 | -81.43206 | 34924 ft | 430 kts | 349° |
| 2026-05-07 20:57 | 31.24743 | -81.43533 | 34946 ft | 431 kts | 349° |
| 2026-05-07 20:57 | 31.30750 | -81.43725 | 34946 ft | 433 kts | 351° |
| 2026-05-07 20:58 | 31.36788 | -81.43746 | 34949 ft | 434 kts | 352° |
| 2026-05-07 20:58 | 31.42821 | -81.43762 | 34949 ft | 434 kts | 351° |
| 2026-05-07 20:59 | 31.48893 | -81.43197 | 34947 ft | 450 kts | 6° |
| 2026-05-07 20:59 | 31.51926 | -81.42072 | 34954 ft | 462 kts | 11° |
| 2026-05-07 20:59 | 31.54967 | -81.40828 | 34948 ft | 464 kts | 11° |
| 2026-05-07 21:00 | 31.61069 | -81.38307 | 34941 ft | 466 kts | 11° |
| 2026-05-07 21:00 | 31.67187 | -81.35772 | 35292 ft | 467 kts | 11° |
| 2026-05-07 21:00 | 31.70250 | -81.34507 | 35552 ft | 466 kts | 11° |
| 2026-05-07 21:01 | 31.73316 | -81.33247 | 35795 ft | 466 kts | 11° |
| 2026-05-07 21:01 | 31.76379 | -81.31990 | 36050 ft | 466 kts | 10° |
| 2026-05-07 21:01 | 31.79439 | -81.30735 | 36287 ft | 466 kts | 10° |
| 2026-05-07 21:01 | 31.82505 | -81.29475 | 36509 ft | 466 kts | 10° |
| 2026-05-07 21:02 | 31.85528 | -81.28228 | 36735 ft | 466 kts | 10° |
| 2026-05-07 21:02 | 31.88633 | -81.26942 | 36886 ft | 467 kts | 10° |
| 2026-05-07 21:02 | 31.91655 | -81.25685 | 36911 ft | 467 kts | 10° |
| 2026-05-07 21:03 | 31.97830 | -81.23726 | 36901 ft | 449 kts | 355° |
| 2026-05-07 21:03 | 32.03995 | -81.23354 | 36907 ft | 443 kts | 352° |
| 2026-05-07 21:04 | 32.10160 | -81.23062 | 36933 ft | 444 kts | 352° |
| 2026-05-07 21:04 | 32.16350 | -81.22754 | 36927 ft | 444 kts | 352° |
| 2026-05-07 21:05 | 32.22527 | -81.22447 | 36934 ft | 444 kts | 351° |
| 2026-05-07 21:05 | 32.28700 | -81.22144 | 36934 ft | 444 kts | 351° |
| 2026-05-07 21:06 | 32.34881 | -81.21835 | 36940 ft | 445 kts | 351° |
| 2026-05-07 21:06 | 32.41033 | -81.21526 | 36937 ft | 445 kts | 351° |
| 2026-05-07 21:07 | 32.47213 | -81.21215 | 36936 ft | 444 kts | 351° |
| 2026-05-07 21:07 | 32.53446 | -81.20383 | 36937 ft | 452 kts | 356° |
| 2026-05-07 21:08 | 32.59689 | -81.19410 | 36939 ft | 453 kts | 356° |
| 2026-05-07 21:08 | 32.65941 | -81.18429 | 36928 ft | 453 kts | 356° |
| 2026-05-07 21:09 | 32.72193 | -81.17449 | 36926 ft | 453 kts | 356° |
| 2026-05-07 21:09 | 32.78455 | -81.16476 | 36914 ft | 454 kts | 355° |
| 2026-05-07 21:10 | 32.84718 | -81.15508 | 36909 ft | 454 kts | 355° |
| 2026-05-07 21:10 | 32.90950 | -81.14540 | 36903 ft | 455 kts | 355° |
| 2026-05-07 21:11 | 32.97222 | -81.13555 | 36900 ft | 456 kts | 355° |
| 2026-05-07 21:11 | 33.06635 | -81.11037 | 36897 ft | 484 kts | 15° |
| 2026-05-07 21:12 | 33.09604 | -81.09034 | 36897 ft | 495 kts | 23° |
| 2026-05-07 21:12 | 33.12513 | -81.06833 | 36883 ft | 496 kts | 23° |
| 2026-05-07 21:12 | 33.18360 | -81.02414 | 36886 ft | 497 kts | 23° |
| 2026-05-07 21:13 | 33.24219 | -80.97998 | 36883 ft | 498 kts | 22° |
| 2026-05-07 21:13 | 33.30087 | -80.93576 | 36885 ft | 499 kts | 22° |
| 2026-05-07 21:14 | 33.35962 | -80.89142 | 36892 ft | 500 kts | 22° |
| 2026-05-07 21:14 | 33.40856 | -80.85446 | 36896 ft | 501 kts | 22° |
| 2026-05-07 21:15 | 33.46750 | -80.80979 | 36898 ft | 502 kts | 22° |
| 2026-05-07 21:15 | 33.52656 | -80.76496 | 36899 ft | 502 kts | 22° |
| 2026-05-07 21:16 | 33.58555 | -80.72003 | 36897 ft | 503 kts | 22° |
| 2026-05-07 21:16 | 33.64468 | -80.67498 | 36886 ft | 503 kts | 21° |
| 2026-05-07 21:17 | 33.70381 | -80.62983 | 36869 ft | 504 kts | 21° |
| 2026-05-07 21:17 | 33.76296 | -80.58465 | 36873 ft | 504 kts | 21° |
| 2026-05-07 21:18 | 33.82221 | -80.53932 | 36867 ft | 504 kts | 21° |
| 2026-05-07 21:18 | 33.88103 | -80.49416 | 36869 ft | 505 kts | 21° |
| 2026-05-07 21:19 | 33.94023 | -80.44861 | 36858 ft | 505 kts | 21° |
| 2026-05-07 21:19 | 33.99963 | -80.40305 | 36881 ft | 507 kts | 21° |
| 2026-05-07 21:20 | 34.02950 | -80.38010 | 36436 ft | 510 kts | 21° |
| 2026-05-07 21:20 | 34.05954 | -80.35700 | 35564 ft | 516 kts | 21° |
| 2026-05-07 21:20 | 34.09000 | -80.33362 | 34660 ft | 522 kts | 21° |
| 2026-05-07 21:20 | 34.12052 | -80.31006 | 33761 ft | 518 kts | 22° |
| 2026-05-07 21:21 | 34.15067 | -80.28659 | 32760 ft | 512 kts | 22° |
| 2026-05-07 21:21 | 34.18040 | -80.26335 | 31851 ft | 504 kts | 22° |
| 2026-05-07 21:21 | 34.20962 | -80.24054 | 31002 ft | 496 kts | 21° |
| 2026-05-07 21:21 | 34.23840 | -80.21814 | 30196 ft | 488 kts | 21° |
| 2026-05-07 21:22 | 34.26668 | -80.19615 | 29476 ft | 477 kts | 21° |
| 2026-05-07 21:22 | 34.29416 | -80.17472 | 28986 ft | 462 kts | 20° |
| 2026-05-07 21:22 | 34.32041 | -80.15423 | 28486 ft | 448 kts | 20° |
| 2026-05-07 21:22 | 34.34629 | -80.13406 | 28004 ft | 436 kts | 20° |
| 2026-05-07 21:23 | 34.37188 | -80.11417 | 27532 ft | 430 kts | 19° |
| 2026-05-07 21:23 | 34.39677 | -80.09496 | 27038 ft | 429 kts | 19° |
| 2026-05-07 21:23 | 34.42194 | -80.07559 | 26547 ft | 428 kts | 19° |
| 2026-05-07 21:23 | 34.44715 | -80.05615 | 26032 ft | 429 kts | 19° |
| 2026-05-07 21:24 | 34.47229 | -80.03669 | 25521 ft | 430 kts | 20° |
| 2026-05-07 21:24 | 34.49763 | -80.01700 | 24992 ft | 432 kts | 20° |
| 2026-05-07 21:24 | 34.52293 | -79.99728 | 24441 ft | 435 kts | 20° |
| 2026-05-07 21:24 | 34.54844 | -79.97734 | 23873 ft | 437 kts | 20° |
| 2026-05-07 21:25 | 34.57401 | -79.95731 | 23291 ft | 439 kts | 21° |
| 2026-05-07 21:25 | 34.59969 | -79.93714 | 22703 ft | 439 kts | 21° |
| 2026-05-07 21:25 | 34.62515 | -79.91703 | 22170 ft | 437 kts | 21° |
| 2026-05-07 21:25 | 34.65049 | -79.89703 | 21836 ft | 430 kts | 21° |
| 2026-05-07 21:26 | 34.67549 | -79.87730 | 21374 ft | 425 kts | 21° |
| 2026-05-07 21:26 | 34.69980 | -79.85761 | 20902 ft | 413 kts | 22° |
| 2026-05-07 21:26 | 34.72296 | -79.83763 | 20377 ft | 404 kts | 24° |
| 2026-05-07 21:26 | 34.74539 | -79.81762 | 19809 ft | 396 kts | 24° |
| 2026-05-07 21:27 | 34.76731 | -79.79783 | 19490 ft | 391 kts | 24° |
| 2026-05-07 21:27 | 34.78909 | -79.77828 | 19294 ft | 388 kts | 24° |
| 2026-05-07 21:27 | 34.81081 | -79.75893 | 18972 ft | 385 kts | 24° |
| 2026-05-07 21:27 | 34.83233 | -79.73981 | 18666 ft | 382 kts | 24° |
| 2026-05-07 21:28 | 34.85376 | -79.72082 | 18347 ft | 379 kts | 24° |
| 2026-05-07 21:28 | 34.87498 | -79.70204 | 18009 ft | 376 kts | 24° |
| 2026-05-07 21:28 | 34.89603 | -79.68342 | 17776 ft | 373 kts | 24° |
| 2026-05-07 21:28 | 34.91701 | -79.66489 | 17467 ft | 371 kts | 25° |
| 2026-05-07 21:29 | 34.93762 | -79.64667 | 17164 ft | 369 kts | 25° |
| 2026-05-07 21:29 | 34.95831 | -79.62837 | 16864 ft | 367 kts | 25° |
| 2026-05-07 21:29 | 34.97886 | -79.61014 | 16535 ft | 365 kts | 26° |
| 2026-05-07 21:29 | 34.99932 | -79.59195 | 16233 ft | 363 kts | 26° |
| 2026-05-07 21:30 | 35.01972 | -79.57381 | 15930 ft | 361 kts | 26° |
| 2026-05-07 21:30 | 35.04001 | -79.55577 | 15618 ft | 359 kts | 27° |
| 2026-05-07 21:30 | 35.06010 | -79.53788 | 15339 ft | 358 kts | 27° |
| 2026-05-07 21:30 | 35.08020 | -79.52000 | 15036 ft | 356 kts | 28° |
| 2026-05-07 21:31 | 35.10025 | -79.50246 | 14745 ft | 351 kts | 23° |
| 2026-05-07 21:31 | 35.12184 | -79.49053 | 14459 ft | 332 kts | 5° |
| 2026-05-07 21:31 | 35.14413 | -79.48608 | 14189 ft | 321 kts | 356° |
| 2026-05-07 21:31 | 35.16632 | -79.48324 | 13986 ft | 321 kts | 356° |
| 2026-05-07 21:32 | 35.18848 | -79.48032 | 13718 ft | 320 kts | 357° |
| 2026-05-07 21:32 | 35.21063 | -79.47736 | 13433 ft | 320 kts | 357° |
| 2026-05-07 21:32 | 35.23277 | -79.47439 | 13159 ft | 319 kts | 357° |
| 2026-05-07 21:32 | 35.25480 | -79.47139 | 12890 ft | 318 kts | 357° |
| 2026-05-07 21:33 | 35.27670 | -79.46839 | 12630 ft | 316 kts | 358° |
| 2026-05-07 21:33 | 35.29848 | -79.46542 | 12367 ft | 314 kts | 357° |
| 2026-05-07 21:33 | 35.31986 | -79.46254 | 12106 ft | 313 kts | 358° |
| 2026-05-07 21:33 | 35.34174 | -79.45960 | 11839 ft | 312 kts | 358° |
| 2026-05-07 21:34 | 35.36301 | -79.45676 | 11583 ft | 310 kts | 358° |
| 2026-05-07 21:34 | 35.38437 | -79.45385 | 11328 ft | 309 kts | 360° |
| 2026-05-07 21:34 | 35.40545 | -79.44716 | 11067 ft | 317 kts | 13° |
| 2026-05-07 21:34 | 35.42607 | -79.43754 | 10794 ft | 316 kts | 13° |
| 2026-05-07 21:35 | 35.44657 | -79.42801 | 10532 ft | 314 kts | 14° |
| 2026-05-07 21:35 | 35.46695 | -79.41853 | 10269 ft | 312 kts | 15° |
| 2026-05-07 21:35 | 35.48617 | -79.40557 | 10010 ft | 319 kts | 32° |
| 2026-05-07 21:35 | 35.50213 | -79.38628 | 9629 ft | 326 kts | 50° |
| 2026-05-07 21:36 | 35.51505 | -79.36344 | 9217 ft | 325 kts | 52° |
| 2026-05-07 21:36 | 35.52780 | -79.34061 | 8842 ft | 323 kts | 52° |
| 2026-05-07 21:36 | 35.54043 | -79.31802 | 8495 ft | 319 kts | 52° |
| 2026-05-07 21:36 | 35.55299 | -79.29563 | 8103 ft | 318 kts | 52° |
| 2026-05-07 21:37 | 35.56543 | -79.27350 | 7760 ft | 314 kts | 52° |
| 2026-05-07 21:37 | 35.57761 | -79.25183 | 7416 ft | 310 kts | 52° |
| 2026-05-07 21:37 | 35.58982 | -79.23011 | 7043 ft | 307 kts | 53° |
| 2026-05-07 21:37 | 35.60187 | -79.20863 | 6665 ft | 304 kts | 53° |
| 2026-05-07 21:38 | 35.61377 | -79.18737 | 6414 ft | 297 kts | 53° |
| 2026-05-07 21:38 | 35.62520 | -79.16695 | 6289 ft | 284 kts | 53° |
| 2026-05-07 21:38 | 35.63614 | -79.14738 | 6159 ft | 272 kts | 53° |
| 2026-05-07 21:38 | 35.64660 | -79.12867 | 6050 ft | 260 kts | 53° |
| 2026-05-07 21:39 | 35.65644 | -79.11050 | 5911 ft | 251 kts | 55° |
| 2026-05-07 21:39 | 35.66544 | -79.09250 | 5735 ft | 243 kts | 56° |
| 2026-05-07 21:39 | 35.67397 | -79.07489 | 5582 ft | 236 kts | 57° |
| 2026-05-07 21:39 | 35.68227 | -79.05766 | 5424 ft | 231 kts | 57° |
| 2026-05-07 21:40 | 35.69033 | -79.04098 | 5307 ft | 221 kts | 56° |
| 2026-05-07 21:40 | 35.69800 | -79.02517 | 5130 ft | 209 kts | 57° |
| 2026-05-07 21:40 | 35.70596 | -79.01092 | 4982 ft | 196 kts | 47° |
| 2026-05-07 21:40 | 35.71489 | -78.99866 | 4770 ft | 189 kts | 43° |
| 2026-05-07 21:41 | 35.72389 | -78.98733 | 4536 ft | 181 kts | 41° |
| 2026-05-07 21:41 | 35.73262 | -78.97654 | 4307 ft | 174 kts | 41° |
| 2026-05-07 21:41 | 35.74089 | -78.96636 | 4078 ft | 163 kts | 41° |
| 2026-05-07 21:41 | 35.74870 | -78.95677 | 3862 ft | 154 kts | 41° |
| 2026-05-07 21:42 | 35.75607 | -78.94771 | 3666 ft | 146 kts | 41° |
| 2026-05-07 21:42 | 35.76306 | -78.93913 | 3488 ft | 139 kts | 41° |
| 2026-05-07 21:42 | 35.76986 | -78.93078 | 3303 ft | 137 kts | 42° |
| 2026-05-07 21:42 | 35.77655 | -78.92256 | 3127 ft | 135 kts | 42° |
| 2026-05-07 21:43 | 35.78315 | -78.91445 | 2941 ft | 133 kts | 43° |
| 2026-05-07 21:43 | 35.78971 | -78.90639 | 2776 ft | 132 kts | 43° |
| 2026-05-07 21:43 | 35.79620 | -78.89840 | 2591 ft | 133 kts | 43° |
| 2026-05-07 21:43 | 35.80272 | -78.89038 | 2417 ft | 132 kts | 45° |
| 2026-05-07 21:44 | 35.80919 | -78.88242 | 2235 ft | 132 kts | 45° |
| 2026-05-07 21:44 | 35.81567 | -78.87444 | 2043 ft | 131 kts | 45° |
| 2026-05-07 21:44 | 35.82210 | -78.86652 | 1882 ft | 130 kts | 44° |
| 2026-05-07 21:44 | 35.82796 | -78.85929 | 1724 ft | 130 kts | 44° |
| 2026-05-07 21:45 | 35.83438 | -78.85138 | 1541 ft | 130 kts | 45° |
| 2026-05-07 21:45 | 35.84075 | -78.84353 | 1367 ft | 131 kts | 44° |
| 2026-05-07 21:45 | 35.84717 | -78.83563 | 1180 ft | 130 kts | 43° |
| 2026-05-07 21:45 | 35.85340 | -78.82758 | 1065 ft | 129 kts | 44° |
| 2026-05-07 21:46 | 35.85980 | -78.81969 | 857 ft | 130 kts | 42° |
| 2026-05-07 21:46 | 35.86624 | -78.81201 | 676 ft | 129 kts | 42° |
| 2026-05-07 21:46 | 35.87211 | -78.80488 | 515 ft | 128 kts | 44° |
| 2026-05-07 21:46 | 35.87831 | -78.79726 | 396 ft | 115 kts | 45° |
| 2026-05-07 21:47 | 35.88285 | -78.79160 | 391 ft | 69 kts | 45° |
| 2026-05-07 21:47 | 35.88559 | -78.78826 | 392 ft | 45 kts | 45° |
| 2026-05-07 21:47 | 35.88741 | -78.78599 | 393 ft | 27 kts | 45° |
| 2026-05-07 21:47 | 35.88730 | -78.78441 | 393 ft | 11 kts | 154° |
| 2026-05-07 21:48 | 35.88676 | -78.78472 | 392 ft | 16 kts | 234° |
| 2026-05-07 21:48 | 35.88585 | -78.78593 | 392 ft | 27 kts | 223° |
| 2026-05-07 21:48 | 35.88468 | -78.78743 | 392 ft | 21 kts | 226° |
| 2026-05-07 21:48 | 35.88378 | -78.78855 | 391 ft | 16 kts | 224° |
| 2026-05-07 21:49 | 35.88314 | -78.78932 | 391 ft | 10 kts | 225° |
| 2026-05-07 21:49 | 35.88273 | -78.78983 | 391 ft | 9 kts | 225° |
| 2026-05-07 21:49 | 35.88215 | -78.79057 | 391 ft | 14 kts | 226° |
| 2026-05-07 21:49 | 35.88143 | -78.79146 | 392 ft | 15 kts | 224° |
| 2026-05-07 21:50 | 35.88051 | -78.79260 | 392 ft | 23 kts | 225° |
| 2026-05-07 21:50 | 35.87945 | -78.79392 | 392 ft | 21 kts | 225° |
| 2026-05-07 21:50 | 35.87850 | -78.79504 | 392 ft | 17 kts | 224° |
| 2026-05-07 21:50 | 35.87781 | -78.79589 | 392 ft | 12 kts | 226° |
| 2026-05-07 21:51 | 35.87706 | -78.79684 | 392 ft | 19 kts | 226° |
| 2026-05-07 21:51 | 35.87620 | -78.79790 | 391 ft | 15 kts | 225° |
| 2026-05-07 21:51 | 35.87548 | -78.79822 | 391 ft | 9 kts | 153° |
| 2026-05-07 21:51 | 35.87489 | -78.79757 | 392 ft | 14 kts | 136° |
| 2026-05-07 21:52 | 35.87423 | -78.79677 | 392 ft | 13 kts | 130° |
| 2026-05-07 21:52 | 35.87438 | -78.79588 | 392 ft | 11 kts | 48° |
| 2026-05-07 21:52 | 35.87494 | -78.79518 | 392 ft | 12 kts | 45° |
| 2026-05-07 21:52 | 35.87545 | -78.79459 | 392 ft | 8 kts | 29° |
| 2026-05-07 21:53 | 35.87579 | -78.79474 | 392 ft | 3 kts | 317° |
| 2026-05-07 21:53 | 35.87583 | -78.79480 | 392 ft | 1 kts | 317° |
| 2026-05-07 21:53 | 35.87586 | -78.79483 | 392 ft | 0 kts | 317° |